sensor_id;sensor_type;location;lat;lon;timestamp;P1;durP1;ratioP1;P2;durP2;ratioP2
43327;SDS011;28923;45.412;10.852;2023-01-04T00:02:23;7.40;;;5.97;;
43327;SDS011;28923;45.412;10.852;2023-01-04T00:04:49;6.78;;;5.53;;
43327;SDS011;28923;45.412;10.852;2023-01-04T00:07:14;6.93;;;5.80;;
43327;SDS011;28923;45.412;10.852;2023-01-04T00:09:40;6.88;;;5.53;;
43327;SDS011;28923;45.412;10.852;2023-01-04T00:12:05;6.78;;;5.38;;
43327;SDS011;28923;45.412;10.852;2023-01-04T00:14:30;5.93;;;4.85;;
43327;SDS011;28923;45.412;10.852;2023-01-04T00:16:56;6.82;;;5.50;;
43327;SDS011;28923;45.412;10.852;2023-01-04T00:19:21;6.68;;;5.90;;
43327;SDS011;28923;45.412;10.852;2023-01-04T00:21:47;5.95;;;5.15;;
43327;SDS011;28923;45.412;10.852;2023-01-04T00:24:12;6.05;;;5.43;;
43327;SDS011;28923;45.412;10.852;2023-01-04T00:26:39;6.60;;;5.18;;
43327;SDS011;28923;45.412;10.852;2023-01-04T00:29:05;7.18;;;5.78;;
43327;SDS011;28923;45.412;10.852;2023-01-04T00:31:31;5.60;;;4.85;;
43327;SDS011;28923;45.412;10.852;2023-01-04T00:33:57;6.32;;;5.50;;
43327;SDS011;28923;45.412;10.852;2023-01-04T00:36:23;6.55;;;5.35;;
43327;SDS011;28923;45.412;10.852;2023-01-04T00:38:48;7.18;;;5.60;;
43327;SDS011;28923;45.412;10.852;2023-01-04T00:41:38;8.20;;;5.63;;
43327;SDS011;28923;45.412;10.852;2023-01-04T00:44:05;6.47;;;5.70;;
43327;SDS011;28923;45.412;10.852;2023-01-04T00:46:31;7.50;;;5.80;;
43327;SDS011;28923;45.412;10.852;2023-01-04T00:48:56;6.72;;;5.10;;
43327;SDS011;28923;45.412;10.852;2023-01-04T00:51:22;7.10;;;5.55;;
43327;SDS011;28923;45.412;10.852;2023-01-04T00:53:48;6.82;;;5.65;;
43327;SDS011;28923;45.412;10.852;2023-01-04T00:56:13;6.07;;;5.43;;
43327;SDS011;28923;45.412;10.852;2023-01-04T00:58:38;6.00;;;5.40;;
43327;SDS011;28923;45.412;10.852;2023-01-04T01:01:05;6.45;;;5.40;;
43327;SDS011;28923;45.412;10.852;2023-01-04T01:03:30;6.22;;;5.35;;
43327;SDS011;28923;45.412;10.852;2023-01-04T01:05:59;7.38;;;5.43;;
43327;SDS011;28923;45.412;10.852;2023-01-04T01:08:25;6.43;;;4.97;;
43327;SDS011;28923;45.412;10.852;2023-01-04T01:10:51;6.05;;;5.18;;
43327;SDS011;28923;45.412;10.852;2023-01-04T01:13:17;5.90;;;5.18;;
43327;SDS011;28923;45.412;10.852;2023-01-04T01:15:43;7.75;;;5.65;;
43327;SDS011;28923;45.412;10.852;2023-01-04T01:18:08;6.30;;;5.70;;
43327;SDS011;28923;45.412;10.852;2023-01-04T01:20:33;6.10;;;5.18;;
43327;SDS011;28923;45.412;10.852;2023-01-04T01:22:59;6.57;;;5.28;;
43327;SDS011;28923;45.412;10.852;2023-01-04T01:25:24;5.95;;;5.35;;
43327;SDS011;28923;45.412;10.852;2023-01-04T01:27:49;5.97;;;5.30;;
43327;SDS011;28923;45.412;10.852;2023-01-04T01:30:15;5.93;;;5.20;;
43327;SDS011;28923;45.412;10.852;2023-01-04T01:32:40;5.85;;;5.10;;
43327;SDS011;28923;45.412;10.852;2023-01-04T01:35:06;5.43;;;4.85;;
43327;SDS011;28923;45.412;10.852;2023-01-04T01:37:31;6.60;;;5.25;;
43327;SDS011;28923;45.412;10.852;2023-01-04T01:39:56;5.80;;;4.70;;
43327;SDS011;28923;45.412;10.852;2023-01-04T01:42:22;6.65;;;5.43;;
43327;SDS011;28923;45.412;10.852;2023-01-04T01:44:52;5.95;;;4.90;;
43327;SDS011;28923;45.412;10.852;2023-01-04T01:47:19;6.18;;;5.57;;
43327;SDS011;28923;45.412;10.852;2023-01-04T01:49:45;5.93;;;5.20;;
43327;SDS011;28923;45.412;10.852;2023-01-04T01:52:20;5.35;;;4.85;;
43327;SDS011;28923;45.412;10.852;2023-01-04T01:54:48;7.03;;;5.53;;
43327;SDS011;28923;45.412;10.852;2023-01-04T01:57:17;6.05;;;5.30;;
43327;SDS011;28923;45.412;10.852;2023-01-04T01:59:44;5.60;;;4.95;;
43327;SDS011;28923;45.412;10.852;2023-01-04T02:02:11;5.68;;;4.90;;
43327;SDS011;28923;45.412;10.852;2023-01-04T02:04:37;5.80;;;4.65;;
43327;SDS011;28923;45.412;10.852;2023-01-04T02:07:03;5.45;;;4.63;;
43327;SDS011;28923;45.412;10.852;2023-01-04T02:09:29;5.60;;;4.63;;
43327;SDS011;28923;45.412;10.852;2023-01-04T02:11:54;6.15;;;5.22;;
43327;SDS011;28923;45.412;10.852;2023-01-04T02:14:20;5.40;;;4.50;;
43327;SDS011;28923;45.412;10.852;2023-01-04T02:27:51;5.78;;;5.05;;
43327;SDS011;28923;45.412;10.852;2023-01-04T02:35:39;5.30;;;4.70;;
43327;SDS011;28923;45.412;10.852;2023-01-04T02:38:15;5.22;;;4.53;;
43327;SDS011;28923;45.412;10.852;2023-01-04T02:40:59;5.70;;;5.20;;
43327;SDS011;28923;45.412;10.852;2023-01-04T02:43:30;6.03;;;5.25;;
43327;SDS011;28923;45.412;10.852;2023-01-04T02:46:22;6.03;;;4.65;;
43327;SDS011;28923;45.412;10.852;2023-01-04T02:48:51;5.30;;;4.53;;
43327;SDS011;28923;45.412;10.852;2023-01-04T02:51:36;6.60;;;5.15;;
43327;SDS011;28923;45.412;10.852;2023-01-04T02:54:03;5.18;;;4.57;;
43327;SDS011;28923;45.412;10.852;2023-01-04T02:56:36;5.90;;;5.10;;
43327;SDS011;28923;45.412;10.852;2023-01-04T03:02:06;6.35;;;4.80;;
43327;SDS011;28923;45.412;10.852;2023-01-04T03:07:54;6.07;;;4.80;;
43327;SDS011;28923;45.412;10.852;2023-01-04T03:12:49;5.80;;;4.97;;
43327;SDS011;28923;45.412;10.852;2023-01-04T03:15:27;5.47;;;4.93;;
43327;SDS011;28923;45.412;10.852;2023-01-04T03:17:57;6.07;;;4.85;;
43327;SDS011;28923;45.412;10.852;2023-01-04T03:20:24;6.07;;;5.25;;
43327;SDS011;28923;45.412;10.852;2023-01-04T03:22:53;6.05;;;5.07;;
43327;SDS011;28923;45.412;10.852;2023-01-04T03:25:42;6.05;;;4.60;;
43327;SDS011;28923;45.412;10.852;2023-01-04T03:28:29;5.20;;;4.70;;
43327;SDS011;28923;45.412;10.852;2023-01-04T03:31:17;5.00;;;4.35;;
43327;SDS011;28923;45.412;10.852;2023-01-04T03:34:02;5.25;;;4.70;;
43327;SDS011;28923;45.412;10.852;2023-01-04T03:39:33;5.90;;;4.80;;
43327;SDS011;28923;45.412;10.852;2023-01-04T03:42:25;5.55;;;4.95;;
43327;SDS011;28923;45.412;10.852;2023-01-04T03:48:14;4.95;;;4.45;;
43327;SDS011;28923;45.412;10.852;2023-01-04T03:50:57;5.60;;;4.95;;
43327;SDS011;28923;45.412;10.852;2023-01-04T03:53:24;5.10;;;4.45;;
43327;SDS011;28923;45.412;10.852;2023-01-04T03:55:51;5.28;;;4.38;;
43327;SDS011;28923;45.412;10.852;2023-01-04T03:58:17;4.75;;;4.25;;
43327;SDS011;28923;45.412;10.852;2023-01-04T04:00:44;4.97;;;4.38;;
43327;SDS011;28923;45.412;10.852;2023-01-04T04:03:09;4.80;;;4.28;;
43327;SDS011;28923;45.412;10.852;2023-01-04T04:05:37;5.38;;;4.43;;
43327;SDS011;28923;45.412;10.852;2023-01-04T04:08:22;5.32;;;4.30;;
43327;SDS011;28923;45.412;10.852;2023-01-04T04:10:54;5.18;;;4.60;;
43327;SDS011;28923;45.412;10.852;2023-01-04T04:13:19;5.68;;;4.50;;
43327;SDS011;28923;45.412;10.852;2023-01-04T04:15:45;5.05;;;4.53;;
43327;SDS011;28923;45.412;10.852;2023-01-04T04:18:10;6.28;;;4.28;;
43327;SDS011;28923;45.412;10.852;2023-01-04T04:20:36;4.82;;;4.32;;
43327;SDS011;28923;45.412;10.852;2023-01-04T04:23:01;4.68;;;4.15;;
43327;SDS011;28923;45.412;10.852;2023-01-04T04:25:27;4.85;;;4.35;;
43327;SDS011;28923;45.412;10.852;2023-01-04T04:27:52;5.88;;;4.60;;
43327;SDS011;28923;45.412;10.852;2023-01-04T04:30:18;5.47;;;4.28;;
43327;SDS011;28923;45.412;10.852;2023-01-04T04:32:43;4.68;;;4.10;;
43327;SDS011;28923;45.412;10.852;2023-01-04T04:35:08;5.32;;;4.50;;
43327;SDS011;28923;45.412;10.852;2023-01-04T04:37:34;5.22;;;4.47;;
43327;SDS011;28923;45.412;10.852;2023-01-04T04:40:01;4.43;;;4.00;;
43327;SDS011;28923;45.412;10.852;2023-01-04T04:42:26;4.50;;;4.10;;
43327;SDS011;28923;45.412;10.852;2023-01-04T04:44:52;6.32;;;4.47;;
43327;SDS011;28923;45.412;10.852;2023-01-04T04:47:17;4.80;;;4.30;;
43327;SDS011;28923;45.412;10.852;2023-01-04T04:49:43;5.25;;;4.07;;
43327;SDS011;28923;45.412;10.852;2023-01-04T04:52:08;4.53;;;4.00;;
43327;SDS011;28923;45.412;10.852;2023-01-04T04:54:34;4.32;;;3.92;;
43327;SDS011;28923;45.412;10.852;2023-01-04T04:56:59;4.60;;;4.20;;
43327;SDS011;28923;45.412;10.852;2023-01-04T04:59:24;4.43;;;4.03;;
43327;SDS011;28923;45.412;10.852;2023-01-04T05:01:50;4.00;;;3.60;;
43327;SDS011;28923;45.412;10.852;2023-01-04T05:04:15;4.10;;;3.67;;
43327;SDS011;28923;45.412;10.852;2023-01-04T05:06:44;4.93;;;4.35;;
43327;SDS011;28923;45.412;10.852;2023-01-04T05:09:10;4.13;;;3.72;;
43327;SDS011;28923;45.412;10.852;2023-01-04T05:11:35;5.15;;;4.10;;
43327;SDS011;28923;45.412;10.852;2023-01-04T05:14:19;4.05;;;3.65;;
43327;SDS011;28923;45.412;10.852;2023-01-04T05:16:44;4.25;;;3.83;;
43327;SDS011;28923;45.412;10.852;2023-01-04T05:19:10;4.05;;;3.65;;
43327;SDS011;28923;45.412;10.852;2023-01-04T05:21:35;4.18;;;3.70;;
43327;SDS011;28923;45.412;10.852;2023-01-04T05:24:01;5.10;;;4.00;;
43327;SDS011;28923;45.412;10.852;2023-01-04T05:26:26;4.07;;;3.70;;
43327;SDS011;28923;45.412;10.852;2023-01-04T05:28:51;4.40;;;4.00;;
43327;SDS011;28923;45.412;10.852;2023-01-04T05:31:17;4.15;;;3.75;;
43327;SDS011;28923;45.412;10.852;2023-01-04T05:33:42;4.80;;;4.30;;
43327;SDS011;28923;45.412;10.852;2023-01-04T05:36:07;4.18;;;3.63;;
43327;SDS011;28923;45.412;10.852;2023-01-04T05:38:33;4.20;;;3.60;;
43327;SDS011;28923;45.412;10.852;2023-01-04T05:40:59;3.78;;;3.30;;
43327;SDS011;28923;45.412;10.852;2023-01-04T05:43:24;4.07;;;3.67;;
43327;SDS011;28923;45.412;10.852;2023-01-04T05:45:50;3.92;;;3.58;;
43327;SDS011;28923;45.412;10.852;2023-01-04T05:48:16;3.80;;;3.50;;
43327;SDS011;28923;45.412;10.852;2023-01-04T05:50:42;4.50;;;3.75;;
43327;SDS011;28923;45.412;10.852;2023-01-04T05:53:10;4.57;;;3.50;;
43327;SDS011;28923;45.412;10.852;2023-01-04T05:55:35;6.65;;;4.35;;
43327;SDS011;28923;45.412;10.852;2023-01-04T05:58:01;6.35;;;3.92;;
43327;SDS011;28923;45.412;10.852;2023-01-04T06:00:26;4.68;;;3.60;;
43327;SDS011;28923;45.412;10.852;2023-01-04T06:02:52;7.75;;;3.75;;
43327;SDS011;28923;45.412;10.852;2023-01-04T06:05:19;7.35;;;4.60;;
43327;SDS011;28923;45.412;10.852;2023-01-04T06:07:45;9.35;;;3.85;;
43327;SDS011;28923;45.412;10.852;2023-01-04T06:10:11;6.75;;;3.78;;
43327;SDS011;28923;45.412;10.852;2023-01-04T06:12:37;9.45;;;4.05;;
43327;SDS011;28923;45.412;10.852;2023-01-04T06:15:02;5.90;;;3.90;;
43327;SDS011;28923;45.412;10.852;2023-01-04T06:17:28;6.40;;;3.70;;
43327;SDS011;28923;45.412;10.852;2023-01-04T06:19:53;9.77;;;4.40;;
43327;SDS011;28923;45.412;10.852;2023-01-04T06:22:19;7.22;;;3.85;;
43327;SDS011;28923;45.412;10.852;2023-01-04T06:24:44;4.68;;;3.95;;
43327;SDS011;28923;45.412;10.852;2023-01-04T06:27:10;7.10;;;3.70;;
43327;SDS011;28923;45.412;10.852;2023-01-04T06:29:35;5.13;;;3.67;;
43327;SDS011;28923;45.412;10.852;2023-01-04T06:32:00;7.22;;;4.05;;
43327;SDS011;28923;45.412;10.852;2023-01-04T06:34:26;5.68;;;3.90;;
43327;SDS011;28923;45.412;10.852;2023-01-04T06:36:51;7.43;;;4.13;;
43327;SDS011;28923;45.412;10.852;2023-01-04T06:39:16;6.35;;;3.78;;
43327;SDS011;28923;45.412;10.852;2023-01-04T06:41:42;5.93;;;3.33;;
43327;SDS011;28923;45.412;10.852;2023-01-04T06:44:08;7.47;;;3.90;;
43327;SDS011;28923;45.412;10.852;2023-01-04T06:46:33;5.68;;;4.05;;
43327;SDS011;28923;45.412;10.852;2023-01-04T06:48:58;5.10;;;3.60;;
43327;SDS011;28923;45.412;10.852;2023-01-04T06:51:24;5.82;;;3.53;;
43327;SDS011;28923;45.412;10.852;2023-01-04T06:53:49;5.70;;;3.40;;
43327;SDS011;28923;45.412;10.852;2023-01-04T06:56:14;5.85;;;3.50;;
43327;SDS011;28923;45.412;10.852;2023-01-04T06:58:40;8.70;;;3.88;;
43327;SDS011;28923;45.412;10.852;2023-01-04T07:01:05;8.43;;;3.65;;
43327;SDS011;28923;45.412;10.852;2023-01-04T07:03:31;6.80;;;3.90;;
43327;SDS011;28923;45.412;10.852;2023-01-04T07:05:56;6.85;;;3.60;;
43327;SDS011;28923;45.412;10.852;2023-01-04T07:08:21;11.30;;;4.28;;
43327;SDS011;28923;45.412;10.852;2023-01-04T07:10:47;6.65;;;3.70;;
43327;SDS011;28923;45.412;10.852;2023-01-04T07:13:12;7.63;;;4.00;;
43327;SDS011;28923;45.412;10.852;2023-01-04T07:15:38;8.05;;;4.05;;
43327;SDS011;28923;45.412;10.852;2023-01-04T07:18:03;7.85;;;4.30;;
43327;SDS011;28923;45.412;10.852;2023-01-04T07:20:28;7.47;;;3.75;;
43327;SDS011;28923;45.412;10.852;2023-01-04T07:22:54;8.65;;;3.55;;
43327;SDS011;28923;45.412;10.852;2023-01-04T07:25:19;6.18;;;3.88;;
43327;SDS011;28923;45.412;10.852;2023-01-04T07:27:49;11.70;;;3.80;;
43327;SDS011;28923;45.412;10.852;2023-01-04T07:30:14;6.90;;;3.97;;
43327;SDS011;28923;45.412;10.852;2023-01-04T07:32:39;8.65;;;3.88;;
43327;SDS011;28923;45.412;10.852;2023-01-04T07:35:05;7.28;;;3.88;;
43327;SDS011;28923;45.412;10.852;2023-01-04T07:37:30;7.97;;;4.00;;
43327;SDS011;28923;45.412;10.852;2023-01-04T07:39:55;9.35;;;4.30;;
43327;SDS011;28923;45.412;10.852;2023-01-04T07:42:21;7.47;;;3.42;;
43327;SDS011;28923;45.412;10.852;2023-01-04T07:44:46;6.35;;;3.55;;
43327;SDS011;28923;45.412;10.852;2023-01-04T07:47:12;7.20;;;3.25;;
43327;SDS011;28923;45.412;10.852;2023-01-04T07:49:37;5.47;;;3.60;;
43327;SDS011;28923;45.412;10.852;2023-01-04T07:52:02;5.15;;;3.50;;
43327;SDS011;28923;45.412;10.852;2023-01-04T07:54:28;7.22;;;4.07;;
43327;SDS011;28923;45.412;10.852;2023-01-04T07:56:53;6.45;;;3.78;;
43327;SDS011;28923;45.412;10.852;2023-01-04T07:59:19;6.90;;;3.85;;
43327;SDS011;28923;45.412;10.852;2023-01-04T08:01:45;9.07;;;4.00;;
43327;SDS011;28923;45.412;10.852;2023-01-04T08:04:11;6.05;;;3.95;;
43327;SDS011;28923;45.412;10.852;2023-01-04T08:06:37;4.97;;;3.83;;
43327;SDS011;28923;45.412;10.852;2023-01-04T08:09:03;4.97;;;3.65;;
43327;SDS011;28923;45.412;10.852;2023-01-04T08:11:28;6.88;;;3.92;;
43327;SDS011;28923;45.412;10.852;2023-01-04T08:13:54;6.53;;;4.22;;
43327;SDS011;28923;45.412;10.852;2023-01-04T08:16:21;11.55;;;6.22;;
43327;SDS011;28923;45.412;10.852;2023-01-04T08:18:47;8.52;;;5.95;;
43327;SDS011;28923;45.412;10.852;2023-01-04T08:21:12;10.57;;;6.72;;
43327;SDS011;28923;45.412;10.852;2023-01-04T08:23:37;10.38;;;6.07;;
43327;SDS011;28923;45.412;10.852;2023-01-04T08:26:04;10.05;;;6.10;;
43327;SDS011;28923;45.412;10.852;2023-01-04T08:28:30;11.18;;;6.25;;
43327;SDS011;28923;45.412;10.852;2023-01-04T08:30:55;11.43;;;6.30;;
43327;SDS011;28923;45.412;10.852;2023-01-04T08:33:21;9.05;;;5.65;;
43327;SDS011;28923;45.412;10.852;2023-01-04T08:35:46;9.77;;;6.00;;
43327;SDS011;28923;45.412;10.852;2023-01-04T08:38:12;12.07;;;5.93;;
43327;SDS011;28923;45.412;10.852;2023-01-04T08:40:37;10.68;;;5.40;;
43327;SDS011;28923;45.412;10.852;2023-01-04T08:43:03;9.82;;;6.18;;
43327;SDS011;28923;45.412;10.852;2023-01-04T08:45:28;12.30;;;6.00;;
43327;SDS011;28923;45.412;10.852;2023-01-04T08:47:53;10.50;;;5.60;;
43327;SDS011;28923;45.412;10.852;2023-01-04T08:50:19;10.48;;;5.88;;
43327;SDS011;28923;45.412;10.852;2023-01-04T08:52:45;8.57;;;5.15;;
43327;SDS011;28923;45.412;10.852;2023-01-04T08:55:12;11.25;;;5.65;;
43327;SDS011;28923;45.412;10.852;2023-01-04T08:57:37;8.40;;;5.75;;
43327;SDS011;28923;45.412;10.852;2023-01-04T09:00:03;8.95;;;5.50;;
43327;SDS011;28923;45.412;10.852;2023-01-04T09:02:28;10.85;;;5.80;;
43327;SDS011;28923;45.412;10.852;2023-01-04T09:04:54;7.10;;;5.20;;
43327;SDS011;28923;45.412;10.852;2023-01-04T09:07:24;7.25;;;5.25;;
43327;SDS011;28923;45.412;10.852;2023-01-04T09:09:49;8.00;;;5.38;;
43327;SDS011;28923;45.412;10.852;2023-01-04T09:12:15;7.95;;;5.00;;
43327;SDS011;28923;45.412;10.852;2023-01-04T09:14:40;8.13;;;5.07;;
43327;SDS011;28923;45.412;10.852;2023-01-04T09:17:05;8.13;;;5.15;;
43327;SDS011;28923;45.412;10.852;2023-01-04T09:19:31;8.55;;;4.95;;
43327;SDS011;28923;45.412;10.852;2023-01-04T09:21:56;10.27;;;5.07;;
43327;SDS011;28923;45.412;10.852;2023-01-04T09:24:22;7.70;;;4.93;;
43327;SDS011;28923;45.412;10.852;2023-01-04T09:26:48;8.20;;;5.03;;
43327;SDS011;28923;45.412;10.852;2023-01-04T09:29:13;6.68;;;4.78;;
43327;SDS011;28923;45.412;10.852;2023-01-04T09:31:38;7.82;;;5.20;;
43327;SDS011;28923;45.412;10.852;2023-01-04T09:34:04;7.53;;;4.95;;
43327;SDS011;28923;45.412;10.852;2023-01-04T09:36:29;5.65;;;4.53;;
43327;SDS011;28923;45.412;10.852;2023-01-04T09:38:54;7.80;;;5.13;;
43327;SDS011;28923;45.412;10.852;2023-01-04T09:41:30;7.00;;;4.97;;
43327;SDS011;28923;45.412;10.852;2023-01-04T09:49:45;5.50;;;4.47;;
43327;SDS011;28923;45.412;10.852;2023-01-04T09:51:52;6.75;;;4.90;;
43327;SDS011;28923;45.412;10.852;2023-01-04T09:54:19;5.85;;;4.35;;
43327;SDS011;28923;45.412;10.852;2023-01-04T09:56:50;8.13;;;5.03;;
43327;SDS011;28923;45.412;10.852;2023-01-04T09:59:16;7.35;;;4.65;;
43327;SDS011;28923;45.412;10.852;2023-01-04T10:01:45;5.35;;;4.43;;
43327;SDS011;28923;45.412;10.852;2023-01-04T10:04:31;7.00;;;4.32;;
43327;SDS011;28923;45.412;10.852;2023-01-04T10:07:00;5.68;;;4.38;;
43327;SDS011;28923;45.412;10.852;2023-01-04T10:09:25;6.13;;;4.38;;
43327;SDS011;28923;45.412;10.852;2023-01-04T10:14:45;8.20;;;5.18;;
43327;SDS011;28923;45.412;10.852;2023-01-04T10:17:36;6.45;;;4.45;;
43327;SDS011;28923;45.412;10.852;2023-01-04T10:22:52;5.78;;;4.45;;
43327;SDS011;28923;45.412;10.852;2023-01-04T10:33:17;7.45;;;4.15;;
43327;SDS011;28923;45.412;10.852;2023-01-04T10:35:44;4.68;;;4.00;;
43327;SDS011;28923;45.412;10.852;2023-01-04T10:38:17;6.70;;;4.40;;
43327;SDS011;28923;45.412;10.852;2023-01-04T10:40:45;5.43;;;4.40;;
43327;SDS011;28923;45.412;10.852;2023-01-04T10:43:24;5.50;;;4.15;;
43327;SDS011;28923;45.412;10.852;2023-01-04T10:50:58;6.50;;;4.45;;
43327;SDS011;28923;45.412;10.852;2023-01-04T10:56:16;5.15;;;4.07;;
43327;SDS011;28923;45.412;10.852;2023-01-04T10:58:50;4.40;;;3.88;;
43327;SDS011;28923;45.412;10.852;2023-01-04T11:01:18;5.55;;;4.30;;
43327;SDS011;28923;45.412;10.852;2023-01-04T11:04:27;5.43;;;4.50;;
43327;SDS011;28923;45.412;10.852;2023-01-04T11:06:37;5.47;;;4.35;;
43327;SDS011;28923;45.412;10.852;2023-01-04T11:09:09;5.78;;;4.32;;
43327;SDS011;28923;45.412;10.852;2023-01-04T11:11:42;4.85;;;3.70;;
43327;SDS011;28923;45.412;10.852;2023-01-04T11:14:08;5.50;;;3.60;;
43327;SDS011;28923;45.412;10.852;2023-01-04T11:16:34;4.55;;;3.70;;
43327;SDS011;28923;45.412;10.852;2023-01-04T11:19:00;4.88;;;3.38;;
43327;SDS011;28923;45.412;10.852;2023-01-04T11:21:26;5.53;;;3.90;;
43327;SDS011;28923;45.412;10.852;2023-01-04T11:23:57;5.00;;;3.90;;
43327;SDS011;28923;45.412;10.852;2023-01-04T11:26:24;4.43;;;3.70;;
43327;SDS011;28923;45.412;10.852;2023-01-04T11:28:59;4.70;;;3.67;;
43327;SDS011;28923;45.412;10.852;2023-01-04T11:31:35;6.80;;;3.40;;
43327;SDS011;28923;45.412;10.852;2023-01-04T11:34:06;5.50;;;3.60;;
43327;SDS011;28923;45.412;10.852;2023-01-04T11:36:36;5.68;;;3.85;;
43327;SDS011;28923;45.412;10.852;2023-01-04T11:39:02;6.25;;;3.80;;
43327;SDS011;28923;45.412;10.852;2023-01-04T11:41:27;5.68;;;3.67;;
43327;SDS011;28923;45.412;10.852;2023-01-04T11:44:00;5.65;;;4.00;;
43327;SDS011;28923;45.412;10.852;2023-01-04T11:46:26;6.72;;;3.75;;
43327;SDS011;28923;45.412;10.852;2023-01-04T11:48:52;5.85;;;4.15;;
43327;SDS011;28923;45.412;10.852;2023-01-04T11:53:56;5.03;;;3.85;;
43327;SDS011;28923;45.412;10.852;2023-01-04T11:56:23;5.05;;;3.95;;
43327;SDS011;28923;45.412;10.852;2023-01-04T11:59:10;3.85;;;3.40;;
43327;SDS011;28923;45.412;10.852;2023-01-04T12:01:35;4.55;;;3.58;;
43327;SDS011;28923;45.412;10.852;2023-01-04T12:04:01;5.18;;;3.15;;
43327;SDS011;28923;45.412;10.852;2023-01-04T12:06:35;3.85;;;3.08;;
43327;SDS011;28923;45.412;10.852;2023-01-04T12:09:02;6.30;;;3.55;;
43327;SDS011;28923;45.412;10.852;2023-01-04T12:11:28;4.88;;;3.33;;
43327;SDS011;28923;45.412;10.852;2023-01-04T12:13:56;4.07;;;3.30;;
43327;SDS011;28923;45.412;10.852;2023-01-04T12:18:56;4.68;;;3.65;;
43327;SDS011;28923;45.412;10.852;2023-01-04T12:21:22;4.88;;;4.00;;
43327;SDS011;28923;45.412;10.852;2023-01-04T12:23:49;4.07;;;3.30;;
43327;SDS011;28923;45.412;10.852;2023-01-04T12:26:15;4.68;;;3.70;;
43327;SDS011;28923;45.412;10.852;2023-01-04T12:28:44;6.45;;;3.70;;
43327;SDS011;28923;45.412;10.852;2023-01-04T12:36:59;6.32;;;3.78;;
43327;SDS011;28923;45.412;10.852;2023-01-04T12:43:59;4.78;;;3.17;;
43327;SDS011;28923;45.412;10.852;2023-01-04T12:54:44;3.63;;;3.17;;
43327;SDS011;28923;45.412;10.852;2023-01-04T12:57:10;4.70;;;3.40;;
43327;SDS011;28923;45.412;10.852;2023-01-04T12:59:54;4.30;;;3.20;;
43327;SDS011;28923;45.412;10.852;2023-01-04T13:04:45;5.60;;;3.45;;
43327;SDS011;28923;45.412;10.852;2023-01-04T13:07:16;25.02;;;5.43;;
43327;SDS011;28923;45.412;10.852;2023-01-04T13:09:45;21.05;;;4.72;;
43327;SDS011;28923;45.412;10.852;2023-01-04T13:12:38;11.50;;;3.97;;
43327;SDS011;28923;45.412;10.852;2023-01-04T13:15:00;7.20;;;3.85;;
43327;SDS011;28923;45.412;10.852;2023-01-04T13:17:28;7.50;;;3.63;;
43327;SDS011;28923;45.412;10.852;2023-01-04T13:19:54;6.30;;;3.42;;
43327;SDS011;28923;45.412;10.852;2023-01-04T13:24:45;3.95;;;3.20;;
43327;SDS011;28923;45.412;10.852;2023-01-04T13:27:16;5.57;;;3.50;;
43327;SDS011;28923;45.412;10.852;2023-01-04T13:29:42;7.70;;;3.67;;
43327;SDS011;28923;45.412;10.852;2023-01-04T13:32:11;4.28;;;3.15;;
43327;SDS011;28923;45.412;10.852;2023-01-04T13:39:28;5.47;;;3.40;;
43327;SDS011;28923;45.412;10.852;2023-01-04T13:41:53;7.30;;;3.63;;
43327;SDS011;28923;45.412;10.852;2023-01-04T13:45:06;6.97;;;3.47;;
43327;SDS011;28923;45.412;10.852;2023-01-04T13:47:06;4.90;;;3.50;;
43327;SDS011;28923;45.412;10.852;2023-01-04T13:49:31;4.15;;;3.33;;
43327;SDS011;28923;45.412;10.852;2023-01-04T13:52:12;4.68;;;3.47;;
43327;SDS011;28923;45.412;10.852;2023-01-04T13:54:37;5.18;;;3.80;;
43327;SDS011;28923;45.412;10.852;2023-01-04T13:57:09;3.78;;;3.10;;
43327;SDS011;28923;45.412;10.852;2023-01-04T13:59:35;10.45;;;4.15;;
43327;SDS011;28923;45.412;10.852;2023-01-04T14:02:00;6.13;;;3.70;;
43327;SDS011;28923;45.412;10.852;2023-01-04T14:04:26;7.50;;;4.07;;
43327;SDS011;28923;45.412;10.852;2023-01-04T14:06:53;6.07;;;4.03;;
43327;SDS011;28923;45.412;10.852;2023-01-04T14:09:20;7.53;;;3.83;;
43327;SDS011;28923;45.412;10.852;2023-01-04T14:12:11;6.78;;;4.00;;
43327;SDS011;28923;45.412;10.852;2023-01-04T14:14:33;6.28;;;4.07;;
43327;SDS011;28923;45.412;10.852;2023-01-04T14:24:46;5.30;;;4.00;;
43327;SDS011;28923;45.412;10.852;2023-01-04T14:29:59;6.40;;;3.95;;
43327;SDS011;28923;45.412;10.852;2023-01-04T14:32:25;6.15;;;4.22;;
43327;SDS011;28923;45.412;10.852;2023-01-04T14:34:51;5.60;;;4.25;;
43327;SDS011;28923;45.412;10.852;2023-01-04T14:37:17;5.43;;;4.32;;
43327;SDS011;28923;45.412;10.852;2023-01-04T14:39:42;5.38;;;3.92;;
43327;SDS011;28923;45.412;10.852;2023-01-04T14:42:24;5.50;;;4.20;;
43327;SDS011;28923;45.412;10.852;2023-01-04T14:44:50;7.30;;;4.30;;
43327;SDS011;28923;45.412;10.852;2023-01-04T14:47:15;6.55;;;4.47;;
43327;SDS011;28923;45.412;10.852;2023-01-04T14:49:40;5.43;;;4.10;;
43327;SDS011;28923;45.412;10.852;2023-01-04T14:52:19;7.70;;;4.80;;
43327;SDS011;28923;45.412;10.852;2023-01-04T14:54:45;5.00;;;4.22;;
43327;SDS011;28923;45.412;10.852;2023-01-04T14:57:11;6.22;;;4.60;;
43327;SDS011;28923;45.412;10.852;2023-01-04T14:59:36;7.50;;;4.22;;
43327;SDS011;28923;45.412;10.852;2023-01-04T15:02:01;7.43;;;4.57;;
43327;SDS011;28923;45.412;10.852;2023-01-04T15:04:27;5.80;;;4.70;;
43327;SDS011;28923;45.412;10.852;2023-01-04T15:06:58;5.63;;;4.82;;
43327;SDS011;28923;45.412;10.852;2023-01-04T15:09:24;5.85;;;4.70;;
43327;SDS011;28923;45.412;10.852;2023-01-04T15:11:50;5.65;;;4.85;;
43327;SDS011;28923;45.412;10.852;2023-01-04T15:14:15;6.38;;;5.22;;
43327;SDS011;28923;45.412;10.852;2023-01-04T15:16:41;6.82;;;5.05;;
43327;SDS011;28923;45.412;10.852;2023-01-04T15:19:07;6.55;;;4.75;;
43327;SDS011;28923;45.412;10.852;2023-01-04T15:21:32;5.38;;;4.82;;
43327;SDS011;28923;45.412;10.852;2023-01-04T15:23:57;5.25;;;4.40;;
43327;SDS011;28923;45.412;10.852;2023-01-04T15:26:23;7.40;;;4.70;;
43327;SDS011;28923;45.412;10.852;2023-01-04T15:28:48;5.40;;;4.60;;
43327;SDS011;28923;45.412;10.852;2023-01-04T15:31:14;6.75;;;4.75;;
43327;SDS011;28923;45.412;10.852;2023-01-04T15:33:39;6.28;;;4.75;;
43327;SDS011;28923;45.412;10.852;2023-01-04T15:36:12;5.80;;;4.78;;
43327;SDS011;28923;45.412;10.852;2023-01-04T15:41:06;6.75;;;4.80;;
43327;SDS011;28923;45.412;10.852;2023-01-04T15:43:33;7.90;;;5.22;;
43327;SDS011;28923;45.412;10.852;2023-01-04T15:46:01;6.82;;;5.03;;
43327;SDS011;28923;45.412;10.852;2023-01-04T15:48:26;7.32;;;5.00;;
43327;SDS011;28923;45.412;10.852;2023-01-04T15:50:51;7.25;;;5.00;;
43327;SDS011;28923;45.412;10.852;2023-01-04T15:53:17;5.95;;;4.63;;
43327;SDS011;28923;45.412;10.852;2023-01-04T15:55:42;9.43;;;5.35;;
43327;SDS011;28923;45.412;10.852;2023-01-04T15:58:07;10.80;;;5.43;;
43327;SDS011;28923;45.412;10.852;2023-01-04T16:00:33;9.05;;;5.13;;
43327;SDS011;28923;45.412;10.852;2023-01-04T16:02:58;13.02;;;4.70;;
43327;SDS011;28923;45.412;10.852;2023-01-04T16:05:23;6.43;;;4.65;;
43327;SDS011;28923;45.412;10.852;2023-01-04T16:07:49;6.85;;;5.05;;
43327;SDS011;28923;45.412;10.852;2023-01-04T16:10:15;7.88;;;4.55;;
43327;SDS011;28923;45.412;10.852;2023-01-04T16:12:40;9.77;;;5.07;;
43327;SDS011;28923;45.412;10.852;2023-01-04T16:15:06;8.25;;;5.25;;
43327;SDS011;28923;45.412;10.852;2023-01-04T16:17:32;9.15;;;5.00;;
43327;SDS011;28923;45.412;10.852;2023-01-04T16:19:57;7.03;;;4.47;;
43327;SDS011;28923;45.412;10.852;2023-01-04T16:22:22;12.55;;;5.45;;